Talitha — ZCAN7 — position and weather

sailwx.info

Track history (hours):
 
Tides and Currents Weather Stations Pressure Air Temp Water Temp Dewpoint Dewpoint Depression Visibility Wind Speed Wind Dir Waves Ship Positions

Talitha

Last reported at 2017-Sep-08 20:37 UTC. Time now 2017-Sep-22 09:57 UTC.
Position N 42°19' E 004°44'.
Warning: this ship's position is 13 days out of date.

Length 80 m; draft 3.6 m.

Type: Pleasure craft. MMSI: 310051000.

Date/timePositionNaut miles runAvg speedWind from/ knotsBaromVisibWave heightAir tempDewpointWater temp
2017-Sep-08 20:37N 42°19' E 004°44'511.2
2017-Sep-08 20:10N 42°21' E 004°50'211.2
2017-Sep-08 19:57N 42°22' E 004°53'511.3
2017-Sep-08 19:30N 42°25' E 004°59'611.2
2017-Sep-08 19:00N 42°27' E 005°06'1511.6
2017-Sep-08 17:44N 42°34' E 005°23'311.7
2017-Sep-08 17:30N 42°35' E 005°26'611.8
2017-Sep-08 17:00N 42°38' E 005°33'611.5
2017-Sep-08 16:30N 42°41' E 005°40'510.7
2017-Sep-08 16:00N 42°43' E 005°47'610.7
2017-Sep-08 15:29N 42°46' E 005°54'510.7
2017-Sep-08 14:59N 42°48' E 005°60'510.9
2017-Sep-08 14:30N 42°51' E 006°06'51 1.9
2017-Sep-07 11:40N 43°26' E 006°57'211.6
2017-Sep-07 11:30N 43°27' E 006°59'611.7
2017-Sep-07 11:00N 43°30' E 007°06'6 0.1
2017-Sep-05 20:43N 43°36' E 007°08'0 0.0
2017-Sep-05 20:13N 43°36' E 007°08'0 0.0
2017-Sep-05 19:58N 43°36' E 007°08'0 0.0
2017-Sep-05 19:28N 43°36' E 007°08'0 0.0
2017-Sep-05 18:58N 43°36' E 007°08'0 0.0
2017-Sep-05 18:19N 43°36' E 007°08'0 0.0
2017-Sep-05 06:18N 43°35' E 007°09'3111.9
2017-Sep-05 03:43N 43°27' E 007°50'211.7
2017-Sep-05 03:30N 43°26' E 007°53'611.3
2017-Sep-05 03:00N 43°25' E 008°00'611.3
2017-Sep-05 02:30N 43°23' E 008°08'510.9
2017-Sep-05 02:00N 43°22' E 008°15'511.0
2017-Sep-05 01:31N 43°20' E 008°22'611.1
2017-Sep-05 01:00N 43°19' E 008°30'711.1
2017-Sep-05 00:21N 43°17' E 008°39'411.0
2017-Sep-05 00:00N 43°16' E 008°44'511.1
2017-Sep-04 23:30N 43°14' E 008°52'1211.1
2017-Sep-04 22:23N 43°11' E 009°08'511.1
2017-Sep-04 21:58N 43°10' E 009°14'511.0
2017-Sep-04 21:31N 43°09' E 009°21'46 9.9
2017-Sep-04 16:54N 42°39' E 010°09'4 7.1
2017-Sep-04 16:24N 42°36' E 010°12'3 7.0
2017-Sep-04 15:59N 42°34' E 010°15'911.4
2017-Sep-04 15:14N 42°28' E 010°23'19910.6
2017-Sep-03 20:20N 40°48' E 014°14'1 0.1
2017-Sep-03 11:49N 40°49' E 014°14'0 1.2
2017-Sep-03 11:29N 40°49' E 014°13'1 0.0
2017-Sep-02 15:04N 40°49' E 014°14'0 0.0
2017-Sep-02 14:49N 40°49' E 014°14'0 0.0
2017-Sep-02 14:19N 40°49' E 014°14'0 0.0
2017-Sep-02 13:49N 40°49' E 014°14'0 0.0
2017-Sep-02 13:07N 40°49' E 014°14'0 0.0
2017-Sep-02 10:01N 40°49' E 014°14'0 0.0
2017-Sep-02 09:31N 40°49' E 014°14'0 0.5
2017-Sep-02 09:28N 40°49' E 014°14'0 0.0
2017-Sep-02 08:46N 40°49' E 014°14'0 0.0
2017-Sep-02 06:03N 40°49' E 014°14'0 0.2
2017-Sep-02 06:00N 40°49' E 014°14'13 1.5
2017-Sep-01 21:31N 40°38' E 014°23'0 0.0
2017-Sep-01 21:30N 40°38' E 014°23'0 0.0
2017-Sep-01 21:00N 40°38' E 014°23'0 0.0
2017-Sep-01 20:30N 40°38' E 014°23'0 0.0
2017-Sep-01 20:00N 40°38' E 014°23'0 0.0
2017-Sep-01 19:30N 40°38' E 014°23'0 0.0
2017-Sep-01 19:00N 40°38' E 014°23'0 0.1
2017-Sep-01 18:30N 40°38' E 014°23'0 0.1
2017-Sep-01 18:00N 40°38' E 014°23'3 2.5
2017-Sep-01 16:39N 40°36' E 014°27'1 0.1
2017-Sep-01 07:21N 40°36' E 014°28'3 8.7
2017-Sep-01 07:00N 40°36' E 014°24'8 0.6
2017-Aug-31 17:43N 40°32' E 014°14'3 0.3
2017-Aug-31 06:48N 40°35' E 014°16'3 9.5
2017-Aug-31 06:30N 40°38' E 014°16'5 9.7
2017-Aug-31 06:00N 40°43' E 014°14'4 8.4
2017-Aug-31 05:29N 40°47' E 014°14'2 0.5
2017-Aug-31 00:58N 40°49' E 014°14'0 0.0
2017-Aug-31 00:31N 40°49' E 014°14'0 0.0
2017-Aug-31 00:01N 40°49' E 014°14'0 0.0
2017-Aug-30 22:46N 40°49' E 014°14'0 0.0
2017-Aug-30 22:31N 40°49' E 014°14'0 0.0
2017-Aug-30 22:01N 40°49' E 014°14'0 0.0
2017-Aug-30 21:30N 40°49' E 014°14'0 0.0
2017-Aug-30 20:57N 40°49' E 014°14'0 0.0
2017-Aug-30 20:30N 40°49' E 014°14'0 0.0
2017-Aug-30 20:00N 40°49' E 014°14'0 0.0
2017-Aug-30 19:30N 40°49' E 014°14'0 0.0
2017-Aug-30 19:00N 40°49' E 014°14'0 0.0
2017-Aug-30 18:30N 40°49' E 014°14'0 0.0
2017-Aug-30 14:07N 40°49' E 014°14'0 0.1
2017-Aug-30 14:00N 40°49' E 014°14'3 5.0
2017-Aug-30 13:30N 40°47' E 014°15'510.3
2017-Aug-30 13:00N 40°42' E 014°14'510.3
2017-Aug-30 12:30N 40°37' E 014°14'3 0.5
2017-Aug-30 06:45N 40°34' E 014°14'  
Track history (hours):
 
Tides and Currents Weather Stations Pressure Air Temp Water Temp Dewpoint Dewpoint Depression Visibility Wind Speed Wind Dir Waves Ship Positions

Talitha

Last reported at 2017-Sep-08 20:37 UTC. Time now 2017-Sep-22 09:57 UTC.
Position N 42°19' E 004°44'.
Warning: this ship's position is 13 days out of date.

Length 80 m; draft 3.6 m.

Type: Pleasure craft. MMSI: 310051000.

Date/timePositionNaut miles runAvg speedWind from/ knotsBaromVisibWave heightAir tempDewpointWater temp
2017-Sep-08 20:37N 42°19' E 004°44'511.2
2017-Sep-08 20:10N 42°21' E 004°50'211.2
2017-Sep-08 19:57N 42°22' E 004°53'511.3
2017-Sep-08 19:30N 42°25' E 004°59'611.2
2017-Sep-08 19:00N 42°27' E 005°06'1511.6
2017-Sep-08 17:44N 42°34' E 005°23'311.7
2017-Sep-08 17:30N 42°35' E 005°26'611.8
2017-Sep-08 17:00N 42°38' E 005°33'611.5
2017-Sep-08 16:30N 42°41' E 005°40'510.7
2017-Sep-08 16:00N 42°43' E 005°47'610.7
2017-Sep-08 15:29N 42°46' E 005°54'510.7
2017-Sep-08 14:59N 42°48' E 005°60'510.9
2017-Sep-08 14:30N 42°51' E 006°06'51 1.9
2017-Sep-07 11:40N 43°26' E 006°57'211.6
2017-Sep-07 11:30N 43°27' E 006°59'611.7
2017-Sep-07 11:00N 43°30' E 007°06'6 0.1
2017-Sep-05 20:43N 43°36' E 007°08'0 0.0
2017-Sep-05 20:13N 43°36' E 007°08'0 0.0
2017-Sep-05 19:58N 43°36' E 007°08'0 0.0
2017-Sep-05 19:28N 43°36' E 007°08'0 0.0
2017-Sep-05 18:58N 43°36' E 007°08'0 0.0
2017-Sep-05 18:19N 43°36' E 007°08'0 0.0
2017-Sep-05 06:18N 43°35' E 007°09'3111.9
2017-Sep-05 03:43N 43°27' E 007°50'211.7
2017-Sep-05 03:30N 43°26' E 007°53'611.3
2017-Sep-05 03:00N 43°25' E 008°00'611.3
2017-Sep-05 02:30N 43°23' E 008°08'510.9
2017-Sep-05 02:00N 43°22' E 008°15'511.0
2017-Sep-05 01:31N 43°20' E 008°22'611.1
2017-Sep-05 01:00N 43°19' E 008°30'711.1
2017-Sep-05 00:21N 43°17' E 008°39'411.0
2017-Sep-05 00:00N 43°16' E 008°44'511.1
2017-Sep-04 23:30N 43°14' E 008°52'1211.1
2017-Sep-04 22:23N 43°11' E 009°08'511.1
2017-Sep-04 21:58N 43°10' E 009°14'511.0
2017-Sep-04 21:31N 43°09' E 009°21'46 9.9
2017-Sep-04 16:54N 42°39' E 010°09'4 7.1
2017-Sep-04 16:24N 42°36' E 010°12'3 7.0
2017-Sep-04 15:59N 42°34' E 010°15'911.4
2017-Sep-04 15:14N 42°28' E 010°23'19910.6
2017-Sep-03 20:20N 40°48' E 014°14'1 0.1
2017-Sep-03 11:49N 40°49' E 014°14'0 1.2
2017-Sep-03 11:29N 40°49' E 014°13'1 0.0
2017-Sep-02 15:04N 40°49' E 014°14'0 0.0
2017-Sep-02 14:49N 40°49' E 014°14'0 0.0
2017-Sep-02 14:19N 40°49' E 014°14'0 0.0
2017-Sep-02 13:49N 40°49' E 014°14'0 0.0
2017-Sep-02 13:07N 40°49' E 014°14'0 0.0
2017-Sep-02 10:01N 40°49' E 014°14'0 0.0
2017-Sep-02 09:31N 40°49' E 014°14'0 0.5
2017-Sep-02 09:28N 40°49' E 014°14'0 0.0
2017-Sep-02 08:46N 40°49' E 014°14'0 0.0
2017-Sep-02 06:03N 40°49' E 014°14'0 0.2
2017-Sep-02 06:00N 40°49' E 014°14'13 1.5
2017-Sep-01 21:31N 40°38' E 014°23'0 0.0
2017-Sep-01 21:30N 40°38' E 014°23'0 0.0
2017-Sep-01 21:00N 40°38' E 014°23'0 0.0
2017-Sep-01 20:30N 40°38' E 014°23'0 0.0
2017-Sep-01 20:00N 40°38' E 014°23'0 0.0
2017-Sep-01 19:30N 40°38' E 014°23'0 0.0
2017-Sep-01 19:00N 40°38' E 014°23'0 0.1
2017-Sep-01 18:30N 40°38' E 014°23'0 0.1
2017-Sep-01 18:00N 40°38' E 014°23'3 2.5
2017-Sep-01 16:39N 40°36' E 014°27'1 0.1
2017-Sep-01 07:21N 40°36' E 014°28'3 8.7
2017-Sep-01 07:00N 40°36' E 014°24'8 0.6
2017-Aug-31 17:43N 40°32' E 014°14'3 0.3
2017-Aug-31 06:48N 40°35' E 014°16'3 9.5
2017-Aug-31 06:30N 40°38' E 014°16'5 9.7
2017-Aug-31 06:00N 40°43' E 014°14'4 8.4
2017-Aug-31 05:29N 40°47' E 014°14'2 0.5
2017-Aug-31 00:58N 40°49' E 014°14'0 0.0
2017-Aug-31 00:31N 40°49' E 014°14'0 0.0
2017-Aug-31 00:01N 40°49' E 014°14'0 0.0
2017-Aug-30 22:46N 40°49' E 014°14'0 0.0
2017-Aug-30 22:31N 40°49' E 014°14'0 0.0
2017-Aug-30 22:01N 40°49' E 014°14'0 0.0
2017-Aug-30 21:30N 40°49' E 014°14'0 0.0
2017-Aug-30 20:57N 40°49' E 014°14'0 0.0
2017-Aug-30 20:30N 40°49' E 014°14'0 0.0
2017-Aug-30 20:00N 40°49' E 014°14'0 0.0
2017-Aug-30 19:30N 40°49' E 014°14'0 0.0
2017-Aug-30 19:00N 40°49' E 014°14'0 0.0
2017-Aug-30 18:30N 40°49' E 014°14'0 0.0
2017-Aug-30 14:07N 40°49' E 014°14'0 0.1
2017-Aug-30 14:00N 40°49' E 014°14'3 5.0
2017-Aug-30 13:30N 40°47' E 014°15'510.3
2017-Aug-30 13:00N 40°42' E 014°14'510.3
2017-Aug-30 12:30N 40°37' E 014°14'3 0.5
2017-Aug-30 06:45N 40°34' E 014°14'  

Dump ship's entire track history